createdAt,value
2019-03-24T00:01:40.702Z,10.84
2019-03-24T00:04:05.259Z,10.82
2019-03-24T00:06:37.026Z,10.80
2019-03-24T00:09:09.059Z,10.79
2019-03-24T00:11:40.864Z,10.76
2019-03-24T00:14:12.628Z,10.75
2019-03-24T00:16:44.400Z,10.73
2019-03-24T00:19:16.165Z,10.71
2019-03-24T00:21:47.871Z,10.68
2019-03-24T00:24:19.630Z,10.64
2019-03-24T00:26:51.419Z,10.61
2019-03-24T00:29:23.127Z,10.57
2019-03-24T00:31:54.923Z,10.52
2019-03-24T00:34:26.662Z,10.50
2019-03-24T00:36:58.548Z,10.46
2019-03-24T00:39:30.213Z,10.42
2019-03-24T00:42:01.983Z,10.40
2019-03-24T00:44:33.718Z,10.37
2019-03-24T00:47:05.601Z,10.34
2019-03-24T00:49:37.369Z,10.32
2019-03-24T00:52:09.148Z,10.29
2019-03-24T00:54:40.961Z,10.26
2019-03-24T00:57:12.811Z,10.24
2019-03-24T00:59:44.597Z,10.20
2019-03-24T01:02:16.293Z,10.17
2019-03-24T01:04:48.070Z,10.12
2019-03-24T01:07:19.814Z,10.10
2019-03-24T01:09:51.483Z,10.05
2019-03-24T01:12:23.231Z,10.00
2019-03-24T01:14:54.924Z,9.93
2019-03-24T01:17:26.654Z,9.86
2019-03-24T01:19:58.364Z,9.84
2019-03-24T01:22:30.069Z,9.81
2019-03-24T01:25:01.766Z,9.77
2019-03-24T01:27:33.522Z,9.76
2019-03-24T01:30:05.996Z,9.75
2019-03-24T01:32:37.687Z,9.74
2019-03-24T01:35:10.662Z,9.72
2019-03-24T01:37:42.387Z,9.69
2019-03-24T01:40:14.092Z,9.66
2019-03-24T01:42:45.831Z,9.65
2019-03-24T01:45:17.591Z,9.61
2019-03-24T01:47:49.488Z,9.58
2019-03-24T01:50:21.172Z,9.54
2019-03-24T01:52:52.907Z,9.50
2019-03-24T01:55:24.603Z,9.47
2019-03-24T06:14:04.641Z,7.22
2019-03-24T06:16:38.003Z,7.24
2019-03-24T06:19:09.791Z,7.25
2019-03-24T06:21:41.569Z,7.27
2019-03-24T06:24:13.296Z,7.29
2019-03-24T06:26:45.070Z,7.29
2019-03-24T06:29:17.079Z,7.30
2019-03-24T06:31:48.910Z,7.33
2019-03-24T06:34:20.846Z,7.33
2019-03-24T06:36:52.584Z,7.36
2019-03-24T06:39:24.354Z,7.37
2019-03-24T06:41:56.081Z,7.38
2019-03-24T06:44:27.762Z,7.38
2019-03-24T06:46:59.537Z,7.41
2019-03-24T06:49:31.272Z,7.43
2019-03-24T06:52:02.953Z,7.46
2019-03-24T06:54:34.676Z,7.50
2019-03-24T06:57:06.596Z,7.53
2019-03-24T06:59:38.280Z,7.57
2019-03-24T07:02:10.180Z,7.61
2019-03-24T07:04:42.315Z,7.65
2019-03-24T07:07:14.122Z,7.67
2019-03-24T07:09:45.931Z,7.69
2019-03-24T07:12:17.686Z,7.75
2019-03-24T07:14:49.468Z,7.78
2019-03-24T07:17:21.362Z,7.83
2019-03-24T07:19:53.099Z,7.86
2019-03-24T07:22:24.839Z,7.89
2019-03-24T07:24:56.723Z,7.93
2019-03-24T07:27:28.565Z,7.97
2019-03-24T07:30:00.666Z,8.03
2019-03-24T07:32:32.592Z,8.08
2019-03-24T07:35:04.484Z,8.13
2019-03-24T07:37:36.291Z,8.17
2019-03-24T07:40:09.315Z,8.22
2019-03-24T07:42:41.109Z,8.27
2019-03-24T07:45:13.122Z,8.32
2019-03-24T07:47:44.918Z,8.37
2019-03-24T07:50:16.739Z,8.40
2019-03-24T07:52:48.599Z,8.45
2019-03-24T07:55:20.410Z,8.49
2019-03-24T07:57:52.168Z,8.55
2019-03-24T08:00:34.529Z,8.59
2019-03-24T08:03:06.474Z,8.64
2019-03-24T08:05:38.352Z,8.69
2019-03-24T08:08:10.243Z,8.74
2019-03-24T08:10:41.997Z,8.77
2019-03-24T08:13:13.760Z,8.83
2019-03-24T08:15:45.495Z,8.85
2019-03-24T08:18:17.291Z,8.89
2019-03-24T08:20:49.024Z,8.93
2019-03-24T08:23:20.889Z,8.97
2019-03-24T08:25:52.643Z,9.02
2019-03-24T08:28:24.459Z,9.08
2019-03-24T08:30:56.180Z,9.11
2019-03-24T08:33:27.939Z,9.14
2019-03-24T08:35:59.755Z,9.19
2019-03-24T08:38:31.489Z,9.21
2019-03-24T08:41:03.376Z,9.22
2019-03-24T08:43:36.396Z,9.24
2019-03-24T08:46:08.168Z,9.27
2019-03-24T08:48:41.023Z,9.31
2019-03-24T08:51:14.263Z,9.35
2019-03-24T08:53:46.118Z,9.40
2019-03-24T08:56:17.909Z,9.43
2019-03-24T08:58:49.657Z,9.46
2019-03-24T09:01:21.401Z,9.49
2019-03-24T09:03:53.475Z,9.54
2019-03-24T09:06:25.362Z,9.58
2019-03-24T09:08:57.143Z,9.63
2019-03-24T09:11:31.409Z,9.63
2019-03-24T09:14:03.094Z,9.63
2019-03-24T09:16:35.042Z,9.65
2019-03-24T09:19:06.754Z,9.68
2019-03-24T09:21:38.526Z,9.73
2019-03-24T09:24:10.329Z,9.77
2019-03-24T09:26:42.088Z,9.82
2019-03-24T09:29:13.902Z,9.86
2019-03-24T09:31:45.575Z,9.92
2019-03-24T09:34:17.382Z,9.99
2019-03-24T09:36:49.180Z,10.05
2019-03-24T09:39:20.955Z,10.11
2019-03-24T09:41:52.730Z,10.17
2019-03-24T09:44:24.469Z,10.24
2019-03-24T09:46:56.228Z,10.29
2019-03-24T09:49:27.962Z,10.34
2019-03-24T09:51:59.699Z,10.40
2019-03-24T09:54:31.382Z,10.45
2019-03-24T09:57:03.167Z,10.52
2019-03-24T09:59:35.173Z,10.57
2019-03-24T10:02:06.915Z,10.65
2019-03-24T10:04:38.743Z,10.74
2019-03-24T10:07:10.477Z,10.84
2019-03-24T10:09:42.190Z,10.94
2019-03-24T10:12:14.010Z,11.03
2019-03-24T10:14:45.748Z,11.12
2019-03-24T10:17:17.382Z,11.19
2019-03-24T10:19:49.170Z,11.29
2019-03-24T10:22:21.003Z,11.38
2019-03-24T10:24:52.854Z,11.44
2019-03-24T10:27:24.537Z,11.51
2019-03-24T12:29:39.353Z,12.81
2019-03-24T12:32:11.095Z,12.93
2019-03-24T12:34:43.123Z,12.99
2019-03-24T12:37:14.916Z,13.07
2019-03-24T12:39:47.746Z,13.23
2019-03-24T12:42:19.557Z,13.46
2019-03-24T12:44:51.520Z,13.74
2019-03-24T12:47:23.381Z,14.07
2019-03-24T12:50:09.090Z,14.39
2019-03-24T12:52:39.037Z,14.63
2019-03-24T12:55:10.903Z,14.81
2019-03-24T12:57:44.166Z,15.00
2019-03-24T13:00:31.912Z,15.29
2019-03-24T13:03:04.822Z,15.65
2019-03-24T13:05:36.868Z,15.97
2019-03-24T13:08:16.371Z,16.10
2019-03-24T13:10:48.498Z,16.08
2019-03-24T13:13:20.280Z,15.91
2019-03-24T13:15:52.059Z,15.68
2019-03-24T13:18:23.949Z,15.44
2019-03-24T13:20:55.877Z,15.12
2019-03-24T13:23:27.612Z,14.91
2019-03-24T13:25:59.407Z,14.80
2019-03-24T13:28:31.190Z,14.70
2019-03-24T13:31:03.014Z,14.59
2019-03-24T13:33:34.785Z,14.52
2019-03-24T13:36:10.856Z,14.46
2019-03-24T13:38:42.619Z,14.41
2019-03-24T13:41:14.476Z,14.36
2019-03-24T13:43:46.276Z,14.33
2019-03-24T13:46:18.059Z,14.32
2019-03-24T13:48:49.848Z,14.24
2019-03-24T13:51:22.593Z,14.16
2019-03-24T13:53:54.356Z,14.09
2019-03-24T13:56:26.106Z,13.99
2019-03-24T13:58:57.866Z,13.89
2019-03-24T14:01:29.692Z,13.83
2019-03-24T14:04:01.507Z,13.79
2019-03-24T14:06:34.967Z,13.77
2019-03-24T14:09:08.651Z,13.78
2019-03-24T14:11:40.561Z,13.79
2019-03-24T14:14:12.353Z,13.78
2019-03-24T14:16:46.504Z,13.78
2019-03-24T14:19:17.613Z,13.76
2019-03-24T14:21:50.304Z,13.75
2019-03-24T14:24:22.028Z,13.73
2019-03-24T14:26:53.790Z,13.72
2019-03-24T14:29:27.201Z,13.66
2019-03-24T14:31:59.172Z,13.63
2019-03-24T14:34:30.965Z,13.60
2019-03-24T14:37:03.406Z,13.55
2019-03-24T14:39:35.464Z,13.49
2019-03-24T14:42:07.477Z,13.45
2019-03-24T14:44:39.311Z,13.38
2019-03-24T14:47:11.165Z,13.34
2019-03-24T14:49:43.120Z,13.31
2019-03-24T14:52:14.899Z,13.28
2019-03-24T14:54:46.578Z,13.23
2019-03-24T14:57:18.341Z,13.20
2019-03-24T14:59:50.083Z,13.15
2019-03-24T15:02:21.864Z,13.09
2019-03-24T15:04:53.554Z,13.06
2019-03-24T15:07:25.340Z,13.04
2019-03-24T15:09:57.054Z,13.02
2019-03-24T15:12:28.815Z,12.96
2019-03-24T15:15:00.619Z,12.91
2019-03-24T15:17:32.360Z,12.88
2019-03-24T15:20:04.294Z,12.84
2019-03-24T15:22:36.018Z,12.80
2019-03-24T15:25:07.889Z,12.72
2019-03-24T15:27:39.692Z,12.66
2019-03-24T15:30:11.805Z,12.61
2019-03-24T15:32:43.940Z,12.58
2019-03-24T15:35:15.864Z,12.53
2019-03-24T15:37:52.314Z,12.48
2019-03-24T15:40:24.294Z,12.45
2019-03-24T15:42:56.074Z,12.43
2019-03-24T15:45:27.795Z,12.43
2019-03-24T15:47:59.574Z,12.43
2019-03-24T15:50:31.336Z,12.44
2019-03-24T15:53:03.196Z,12.47
2019-03-24T15:55:34.910Z,12.49
2019-03-24T15:58:06.678Z,12.48
2019-03-24T16:00:48.491Z,12.49
2019-03-24T16:03:20.250Z,12.56
2019-03-24T16:05:52.073Z,12.63
2019-03-24T16:08:23.802Z,12.72
2019-03-24T16:10:55.566Z,12.79
2019-03-24T16:13:28.245Z,12.86
2019-03-24T16:16:00.041Z,12.93
2019-03-24T16:18:31.890Z,13.01
2019-03-24T16:21:03.742Z,13.10
2019-03-24T16:23:35.475Z,13.18
2019-03-24T16:26:07.200Z,13.33
2019-03-24T16:28:39.114Z,13.46
2019-03-24T16:31:11.032Z,13.55
2019-03-24T16:33:42.914Z,13.63
2019-03-24T16:36:15.652Z,13.70
2019-03-24T16:38:49.030Z,13.75
2019-03-24T16:41:21.150Z,13.77
2019-03-24T16:43:52.975Z,13.75
2019-03-24T16:46:24.675Z,13.72
2019-03-24T16:48:56.450Z,13.68
2019-03-24T16:51:38.168Z,13.65
2019-03-24T16:54:01.667Z,13.62
2019-03-24T16:56:33.401Z,13.55
2019-03-24T16:59:05.194Z,13.46
2019-03-24T17:01:37.001Z,13.38
2019-03-24T17:04:08.841Z,13.29
2019-03-24T17:06:41.651Z,13.17
2019-03-24T17:09:13.392Z,13.08
2019-03-24T17:11:45.139Z,13.02
2019-03-24T17:14:16.872Z,12.91
2019-03-24T17:16:48.669Z,12.83
2019-03-24T17:19:20.414Z,12.73
2019-03-24T17:21:53.141Z,12.63
2019-03-24T17:24:24.885Z,12.53
2019-03-24T17:26:56.632Z,12.46
2019-03-24T17:29:28.450Z,12.40
2019-03-24T17:32:00.192Z,12.33
2019-03-24T17:34:32.110Z,12.24
2019-03-24T17:37:03.854Z,12.14
2019-03-24T17:39:35.596Z,12.03
2019-03-24T17:42:07.416Z,11.89
2019-03-24T17:44:39.170Z,11.78
2019-03-24T17:47:11.008Z,11.70
2019-03-24T17:49:42.794Z,11.64
2019-03-24T17:52:14.564Z,11.55
2019-03-24T17:54:46.296Z,11.48
2019-03-24T17:57:17.996Z,11.40
2019-03-24T17:59:49.738Z,11.33
2019-03-24T18:02:21.477Z,11.28
2019-03-24T18:04:53.323Z,11.21
2019-03-24T18:07:25.094Z,11.16
2019-03-24T18:09:56.940Z,11.12
2019-03-24T18:12:28.687Z,11.07
2019-03-24T18:15:00.502Z,11.03
2019-03-24T18:17:32.244Z,10.97
2019-03-24T18:20:03.992Z,10.92
2019-03-24T18:22:35.709Z,10.87
2019-03-24T18:25:09.069Z,10.83
2019-03-24T18:27:40.768Z,10.79
2019-03-24T18:30:12.905Z,10.74
2019-03-24T18:32:44.742Z,10.70
2019-03-24T18:35:16.502Z,10.66
2019-03-24T18:37:48.239Z,10.61
2019-03-24T18:40:20.745Z,10.58
2019-03-24T18:42:52.957Z,10.56
2019-03-24T18:45:26.156Z,10.52
2019-03-24T18:47:57.976Z,10.47
2019-03-24T18:50:29.998Z,10.41
2019-03-24T18:53:01.972Z,10.28
2019-03-24T18:55:33.963Z,10.18
2019-03-24T18:58:06.241Z,10.06
2019-03-24T19:00:38.149Z,9.96
2019-03-24T19:03:10.042Z,9.83
2019-03-24T19:05:43.499Z,9.74
2019-03-24T19:08:16.472Z,9.66
2019-03-24T19:10:48.567Z,9.58
2019-03-24T19:13:20.983Z,9.50
2019-03-24T19:15:52.725Z,9.41
2019-03-24T19:18:24.953Z,9.30
2019-03-24T19:20:56.780Z,9.19
2019-03-24T19:23:28.569Z,9.10
2019-03-24T19:26:00.350Z,8.99
2019-03-24T19:28:32.077Z,8.91
2019-03-24T19:31:06.185Z,8.84
2019-03-24T19:33:37.616Z,8.77
2019-03-24T19:36:09.746Z,8.71
2019-03-24T19:38:42.849Z,8.65
2019-03-24T19:41:14.650Z,8.58
2019-03-24T19:43:46.403Z,8.56
2019-03-24T19:46:18.164Z,8.52
2019-03-24T19:48:49.956Z,8.48
2019-03-24T19:51:22.016Z,8.43
2019-03-24T19:53:53.980Z,8.37
2019-03-24T19:56:25.758Z,8.31
2019-03-24T19:58:57.678Z,8.25
2019-03-24T20:01:29.482Z,8.21
2019-03-24T20:04:01.837Z,8.17
2019-03-24T20:06:34.893Z,8.15
2019-03-24T20:09:09.253Z,8.10
2019-03-24T20:11:41.127Z,8.07
2019-03-24T20:14:13.381Z,8.03
2019-03-24T20:16:45.450Z,8.00
2019-03-24T20:19:17.362Z,8.00
2019-03-24T20:21:49.328Z,8.01
2019-03-24T20:24:21.053Z,8.02
2019-03-24T20:26:52.780Z,8.02
2019-03-24T20:29:24.467Z,8.05
2019-03-24T20:31:56.182Z,8.04
2019-03-24T20:34:27.864Z,8.04
2019-03-24T20:36:59.617Z,8.05
2019-03-24T20:39:31.496Z,8.05
2019-03-24T20:42:03.395Z,8.04
2019-03-24T20:44:35.169Z,8.02
2019-03-24T20:47:07.023Z,8.03
2019-03-24T20:49:38.791Z,8.03
2019-03-24T20:52:10.536Z,8.06
2019-03-24T20:54:42.293Z,8.06
2019-03-24T20:57:14.056Z,8.08
2019-03-24T20:59:45.725Z,8.08
2019-03-24T21:02:17.591Z,8.09
2019-03-24T21:04:49.443Z,8.08
2019-03-24T21:07:23.910Z,8.07
2019-03-24T21:09:56.038Z,8.05
2019-03-24T21:12:28.161Z,8.02
2019-03-24T21:14:59.917Z,8.00
2019-03-24T21:17:31.899Z,7.98
2019-03-24T21:20:03.701Z,7.98
2019-03-24T21:22:35.430Z,7.98
2019-03-24T21:25:07.373Z,7.97
2019-03-24T21:27:40.402Z,7.92
2019-03-24T21:30:12.735Z,7.87
2019-03-24T21:32:44.850Z,7.85
2019-03-24T21:35:16.932Z,7.82
2019-03-24T21:37:48.699Z,7.79
2019-03-24T21:40:20.564Z,7.77
2019-03-24T21:42:52.429Z,7.75
2019-03-24T21:45:24.382Z,7.73
2019-03-24T21:47:56.274Z,7.74
2019-03-24T21:50:28.167Z,7.74
2019-03-24T21:53:00.040Z,7.72
2019-03-24T21:55:32.935Z,7.71
2019-03-24T21:58:05.915Z,7.69
2019-03-24T22:00:38.533Z,7.67
2019-03-24T22:03:10.386Z,7.64
2019-03-24T22:05:42.173Z,7.61
2019-03-24T22:08:13.864Z,7.56
2019-03-24T22:10:45.712Z,7.54
2019-03-24T22:13:17.552Z,7.52
2019-03-24T22:15:49.308Z,7.51
2019-03-24T22:18:21.114Z,7.49
2019-03-24T22:20:53.359Z,7.45
2019-03-24T22:23:25.025Z,7.42
2019-03-24T22:25:56.788Z,7.39
2019-03-24T22:28:28.525Z,7.38
2019-03-24T22:31:00.309Z,7.36
2019-03-24T22:33:32.286Z,7.32
2019-03-24T22:36:03.995Z,7.32
2019-03-24T22:38:35.768Z,7.30
2019-03-24T22:41:07.471Z,7.28
2019-03-24T22:43:39.168Z,7.24
2019-03-24T22:46:10.951Z,7.20
2019-03-24T22:48:42.723Z,7.15
2019-03-24T22:51:14.421Z,7.10
2019-03-24T22:53:46.132Z,7.06
2019-03-24T22:56:18.147Z,7.03
2019-03-24T22:58:49.968Z,7.04
2019-03-24T23:01:21.727Z,7.03
2019-03-24T23:03:53.535Z,7.04
2019-03-24T23:06:25.301Z,7.08
2019-03-24T23:08:57.029Z,7.10
2019-03-24T23:11:28.827Z,7.11
2019-03-24T23:14:00.570Z,7.14
2019-03-24T23:16:32.354Z,7.16
2019-03-24T23:19:04.159Z,7.21
2019-03-24T23:21:35.873Z,7.22
2019-03-24T23:24:15.401Z,7.25
2019-03-24T23:26:41.106Z,7.27
2019-03-24T23:29:12.779Z,7.27
2019-03-24T23:31:44.463Z,7.28
2019-03-24T23:34:16.228Z,7.27
2019-03-24T23:36:48.013Z,7.29
2019-03-24T23:39:19.765Z,7.30
2019-03-24T23:41:51.528Z,7.30
2019-03-24T23:44:23.439Z,7.32
2019-03-24T23:46:55.294Z,7.33
2019-03-24T23:49:27.039Z,7.35
2019-03-24T23:51:58.776Z,7.35
2019-03-24T23:54:31.479Z,7.35
2019-03-24T23:57:03.151Z,7.33
2019-03-24T23:59:34.851Z,7.32
